Home PIREPS Pireps

Flight BEL2555

  • Submitted By: Johan Willems
  • Departure Airport: Bruxelles National (EBBR)
  • Arrival Airport: Warszawa-Okecie (EPWA)
  • Aircraft: BAE AVRO RJ1 (OO-DWA)
  • Flight Time: 01.51
  • Date Submitted: 12/04/2015
  • Status: Accepted
Flight Details
Gross Revenue:
(83 load / € 155.00 per unit
€ 12,865.00
Fuel Cost:
(5117 fuel used @ 5.1 / unit)
€ 26,096.70

Additional Log Information:

View Log

Aircraft Used in flight is Airbus A320 brussels
09:11 Brakes are On
09:12 Brakes are Released
09:18 You Took off @ 160 Knots and Flaps at Position 3
Departure Weather
EBBR 120650Z 22008KT CAVOK 06/04 Q1029 NOSIGrn
09:19 Landing Gear Up @ 244 Knots and 2430 Feet
09:26 You exceeded maximum bank angle
10:41 Below 10000 feet you are not allowed to go over 250 knots
10:53 Landing Gear Down @ 160 Knots and 2970 Feet
10:56 You Landed @ 137 Knots and with -400 Vertical Speed
Arrival Weather
EPWA 120830Z 30014KT 9999 FEW025 13/04 Q1025 NOSIGrn
11:02 Brakes are On
11:02 Brussels Bel-Track1.0.0.9

Route Map

Corporate About Us Our Team Vacancies Information Fleet Route Network Rules and Regulations Operations Flight Schedules Event Center Tours Partners IVAO Vatsim Acars dev FSCB

fb Users Online No pilots online!
0 Pilot(s) and 96 Guest(s) Online
CMS by phpVMS - Design by Crazycreatives.com - Copyright © 2018 - Brussels Airlines Virtual